Portada
METAR-TAF:

METAR-TAF

Aeroports :

Aizawl, Índia

latitud: 23-50-18N, longitud: 92-37-13E, altitud: 405 m

Observació

L'informe es va fer fa 17 minuts, a les 03:30 UTC
Vent calma
Temperatura 20°C
Humitat 68%
Pressió 1017 hPa
Visibilitat: 4500 m
calitja

METAR: VELP 210330Z 00000KT 4500 HZ NSC 20/14 Q1017 NOSIG

Hora: 09:17 (03:47 UTC)

Pronòstic

L'informe es va fer fa 1 hora i 47 minuts, a les 02:00 UTC
Pronòstic vàlid del 21 a les 03 UTC al 21 a les 12 UTC
Vent kt del Nord
Visibilitat: 1500 m
Escasses núvols a una alçada de 1800 ft
Núvols disperses a una alçada de 10000 ft
boirina
Evolucionant progressivament
l' 21 a les 04 UTC al 21 a les 06 UTC
Visibilitat: 3000 m
boirina

TAF: VELP 210200Z 2103/2112 00000KT 1500 BR FEW018 SCT100 BECMG 2104/2106 3000 BR

Observacions i pronòstics meteorològics de més de 4000 aeroports (METAR i TAF).

Les estacions disponibles són els punts grocs i vermells al mapa.

Posi el ratolí al punt desitjat per veure el nom de l'estació.

Feu clic per veure les observacions i els pronòstics meteorològics.

Per canviar el mapa: feu clic els botons verds amb una creu de color negre per apropar; al botó verd amb un guió per allunyar la imatge; o en les fletxes verdes per a mapes adjacents.


METAR-TAF: